Time;durP1;ratioP1;P1;durP2;ratioP2;P2;SDS_P1;SDS_P2;PMS_P1;PMS_P2;Temp;Humidity;BMP_temperature;BMP_pressure;BME280_temperature;BME280_humidity;BME280_pressure;Samples;Min_cycle;Max_cycle;Signal;HPM_P1;HPM_P2
2021/08/23 00:02:15;;;;;;;12.50;7.77;;;18.90;99.90;;;;;;5057861;28;20235;-91
2021/08/23 00:04:47;;;;;;;11.63;7.57;;;18.80;99.90;;;;;;5051248;28;20236;-90
2021/08/23 00:07:23;;;;;;;11.83;7.93;;;19.00;99.90;;;;;;5071016;28;20235;-90
2021/08/23 00:09:55;;;;;;;10.20;7.47;;;18.70;99.90;;;;;;5074608;28;20191;-90
2021/08/23 00:31:15;;;;;;;10.73;6.63;;;18.90;99.90;;;;;;5068623;28;20245;-91
2021/08/23 00:33:47;;;;;;;13.33;8.97;;;18.90;99.90;;;;;;5072059;28;20212;-90
2021/08/23 00:36:19;;;;;;;13.83;8.80;;;18.90;99.90;;;;;;5070775;28;20200;-90
2021/08/23 00:44:09;;;;;;;13.67;9.07;;;18.80;99.90;;;;;;5889623;22;20295;-92
2021/08/23 00:46:47;;;;;;;12.20;8.03;;;18.90;99.90;;;;;;5101003;23;20243;-91
2021/08/23 00:49:18;;;;;;;14.53;8.17;;;18.90;99.90;;;;;;5060421;28;20291;-91
2021/08/23 00:51:49;;;;;;;12.07;8.50;;;19.20;99.90;;;;;;5057547;28;20615;-91
2021/08/23 00:54:21;;;;;;;11.67;8.20;;;19.40;99.90;;;;;;5058562;28;20208;-91
2021/08/23 00:56:52;;;;;;;12.10;7.80;;;19.50;99.90;;;;;;5058535;28;20252;-92
2021/08/23 00:59:24;;;;;;;13.27;8.50;;;19.50;99.90;;;;;;5060735;28;20228;-92
2021/08/23 01:02:06;;;;;;;12.83;7.67;;;19.40;99.90;;;;;;5056703;28;20983;-91
2021/08/23 01:04:46;;;;;;;13.17;8.60;;;19.30;99.90;;;;;;5057593;28;20238;-92
2021/08/23 01:07:19;;;;;;;15.20;8.40;;;19.20;99.90;;;;;;5056884;28;20233;-92
2021/08/23 01:09:55;;;;;;;11.50;8.20;;;19.10;99.90;;;;;;5057628;28;20231;-91
2021/08/23 01:12:27;;;;;;;10.43;8.20;;;18.90;99.90;;;;;;5058208;28;20196;-91
2021/08/23 01:15:00;;;;;;;11.17;7.97;;;18.70;99.90;;;;;;5058077;28;20220;-91
2021/08/23 01:17:34;;;;;;;12.57;8.10;;;18.50;99.90;;;;;;5040535;28;20212;-91
2021/08/23 01:20:08;;;;;;;13.47;8.70;;;18.30;99.90;;;;;;5057741;28;20227;-92
2021/08/23 01:22:43;;;;;;;10.03;7.53;;;18.10;99.90;;;;;;5056726;28;20225;-91
2021/08/23 01:25:17;;;;;;;10.20;7.73;;;18.00;99.90;;;;;;5057228;28;20652;-91
2021/08/23 01:28:01;;;;;;;11.23;7.67;;;18.00;99.90;;;;;;5057765;28;20231;-91
2021/08/23 01:30:39;;;;;;;11.70;8.07;;;17.90;99.90;;;;;;5039944;28;20223;-91
2021/08/23 01:33:13;;;;;;;12.97;7.67;;;17.70;99.90;;;;;;5057259;28;20212;-91
2021/08/23 01:35:44;;;;;;;11.80;7.83;;;17.60;99.90;;;;;;5057324;28;20239;-91
2021/08/23 01:38:17;;;;;;;12.10;7.93;;;17.60;99.90;;;;;;5058300;28;20212;-92
2021/08/23 01:40:52;;;;;;;11.57;8.03;;;17.40;99.90;;;;;;5040441;28;20208;-92
2021/08/23 01:43:24;;;;;;;11.23;7.67;;;17.40;99.90;;;;;;5057952;28;20232;-92
2021/08/23 01:45:55;;;;;;;9.87;7.30;;;17.30;99.90;;;;;;5058127;28;20231;-92
2021/08/23 01:48:29;;;;;;;11.03;8.03;;;17.20;99.90;;;;;;5060276;28;20235;-92
2021/08/23 01:51:00;;;;;;;13.30;8.07;;;17.20;99.90;;;;;;5059582;28;20235;-92
2021/08/23 01:53:32;;;;;;;9.30;7.37;;;17.10;99.90;;;;;;5061040;28;20230;-92
2021/08/23 01:56:03;;;;;;;13.03;7.30;;;17.20;99.90;;;;;;5061337;28;20200;-92
2021/08/23 01:58:35;;;;;;;9.93;7.03;;;17.20;99.90;;;;;;5062377;28;20207;-92
2021/08/23 02:01:06;;;;;;;8.93;6.70;;;17.20;99.90;;;;;;5061352;28;20291;-93
2021/08/23 02:03:40;;;;;;;13.63;8.30;;;17.20;99.90;;;;;;5046603;28;20256;-93
2021/08/23 02:06:12;;;;;;;12.50;7.67;;;17.10;99.90;;;;;;5070985;28;20195;-94
2021/08/23 02:08:43;;;;;;;10.73;7.20;;;17.10;99.90;;;;;;5076879;28;20184;-93
2021/08/23 02:11:14;;;;;;;10.77;6.87;;;17.00;99.90;;;;;;5075826;28;20204;-92
2021/08/23 02:13:45;;;;;;;8.57;6.70;;;17.00;99.90;;;;;;5075595;28;20188;-92
2021/08/23 02:16:16;;;;;;;10.10;7.27;;;17.00;99.90;;;;;;5075210;28;20199;-92
2021/08/23 02:18:50;;;;;;;14.53;6.93;;;16.90;99.90;;;;;;5073622;28;20212;-92
2021/08/23 02:21:21;;;;;;;10.57;7.37;;;16.80;99.90;;;;;;5064615;28;20265;-93
2021/08/23 02:23:53;;;;;;;8.40;7.03;;;16.80;99.90;;;;;;5058567;28;20224;-92
2021/08/23 02:26:25;;;;;;;11.70;6.83;;;16.70;99.90;;;;;;5060168;28;20677;-91
2021/08/23 02:28:57;;;;;;;13.47;7.30;;;16.70;99.90;;;;;;5058081;28;20320;-93
2021/08/23 02:31:28;;;;;;;10.33;7.10;;;16.70;99.90;;;;;;5044297;28;20295;-93
2021/08/23 02:34:02;;;;;;;8.83;6.43;;;16.70;99.90;;;;;;5056686;28;20225;-92
2021/08/23 02:36:34;;;;;;;11.40;7.27;;;16.60;99.90;;;;;;5062688;28;20667;-92
2021/08/23 02:39:06;;;;;;;9.47;6.53;;;16.50;99.90;;;;;;5062656;28;20208;-93
2021/08/23 02:41:37;;;;;;;10.77;6.83;;;16.40;99.90;;;;;;5060957;28;20228;-92
2021/08/23 02:44:10;;;;;;;11.77;8.03;;;16.40;99.90;;;;;;5062678;28;20212;-93
2021/08/23 02:46:41;;;;;;;10.03;6.63;;;16.30;99.90;;;;;;5061344;28;20308;-91
2021/08/23 02:49:16;;;;;;;9.83;6.97;;;16.20;99.90;;;;;;5061383;28;20243;-90
2021/08/23 02:51:48;;;;;;;11.83;6.80;;;16.10;99.90;;;;;;5060446;28;20225;-90
2021/08/23 02:54:19;;;;;;;11.63;6.60;;;15.90;99.90;;;;;;5069558;28;20200;-90
2021/08/23 02:56:51;;;;;;;10.93;6.93;;;15.80;99.90;;;;;;5077844;28;20195;-92
2021/08/23 02:59:22;;;;;;;11.30;6.63;;;15.70;99.90;;;;;;5080106;28;20275;-93
2021/08/23 03:01:53;;;;;;;10.50;7.20;;;15.60;99.90;;;;;;5063404;28;20234;-93
2021/08/23 03:04:28;;;;;;;8.37;6.33;;;15.50;99.90;;;;;;5057461;28;20722;-92
2021/08/23 03:07:03;;;;;;;13.17;6.60;;;15.50;99.90;;;;;;5060163;28;20274;-92
2021/08/23 03:09:35;;;;;;;10.17;7.10;;;15.40;99.90;;;;;;5060295;28;20207;-93
2021/08/23 03:12:10;;;;;;;22.00;7.03;;;15.40;99.90;;;;;;5059379;28;20295;-92
2021/08/23 03:14:41;;;;;;;9.40;7.10;;;15.40;99.90;;;;;;5059293;28;20262;-91
2021/08/23 03:17:12;;;;;;;13.23;6.80;;;15.30;99.90;;;;;;5059920;28;20239;-92
2021/08/23 03:19:46;;;;;;;10.57;7.27;;;15.30;99.90;;;;;;5059470;28;20291;-92
2021/08/23 03:22:18;;;;;;;10.50;6.90;;;15.30;99.90;;;;;;5058674;28;20295;-92
2021/08/23 03:24:50;;;;;;;9.23;6.60;;;15.20;99.90;;;;;;5059191;28;20291;-92
2021/08/23 03:27:22;;;;;;;9.47;6.80;;;15.20;99.90;;;;;;5059230;28;20680;-92
2021/08/23 03:29:53;;;;;;;10.87;7.17;;;15.10;99.90;;;;;;5059191;28;20748;-92
2021/08/23 03:32:25;;;;;;;11.17;7.37;;;15.10;99.90;;;;;;5058548;28;20247;-91
2021/08/23 03:34:58;;;;;;;10.40;6.43;;;15.10;99.90;;;;;;5059316;28;20240;-92
2021/08/23 03:37:29;;;;;;;13.53;7.17;;;15.00;99.90;;;;;;5059184;28;20295;-92
2021/08/23 03:40:01;;;;;;;10.63;7.13;;;15.00;99.90;;;;;;5058788;28;20236;-92
2021/08/23 03:42:32;;;;;;;10.77;6.67;;;15.00;99.90;;;;;;5059342;28;20606;-92
2021/08/23 03:45:04;;;;;;;13.13;6.83;;;14.90;99.90;;;;;;5066243;28;20222;-92
2021/08/23 03:47:49;;;;;;;10.63;6.73;;;14.90;99.90;;;;;;5077981;28;20188;-92
2021/08/23 03:50:23;;;;;;;11.00;6.77;;;14.80;99.90;;;;;;5076485;28;20219;-92
2021/08/23 03:52:55;;;;;;;9.27;6.30;;;14.80;99.90;;;;;;5075530;28;20215;-93
2021/08/23 03:55:26;;;;;;;10.43;6.90;;;14.80;99.90;;;;;;5045671;28;20225;-92
2021/08/23 03:57:57;;;;;;;12.10;6.90;;;14.70;99.90;;;;;;5041622;28;20654;-91
2021/08/23 04:00:29;;;;;;;10.47;6.70;;;14.60;99.90;;;;;;5039637;28;20240;-92
2021/08/23 04:03:00;;;;;;;12.87;7.17;;;14.60;99.90;;;;;;5040041;28;20275;-92
2021/08/23 04:05:33;;;;;;;11.07;7.03;;;14.50;99.90;;;;;;5039861;28;20255;-92
2021/08/23 04:08:05;;;;;;;10.93;6.80;;;14.40;99.90;;;;;;5024447;28;20281;-90
2021/08/23 04:10:44;;;;;;;9.17;6.80;;;14.30;99.90;;;;;;5034052;28;20273;-90
2021/08/23 04:13:18;;;;;;;9.70;6.50;;;14.20;99.90;;;;;;5056584;28;20207;-90
2021/08/23 04:15:50;;;;;;;10.63;7.10;;;14.10;99.90;;;;;;5021406;28;20228;-91
2021/08/23 04:18:22;;;;;;;10.17;6.80;;;14.00;99.90;;;;;;5051742;28;20764;-91
2021/08/23 04:20:55;;;;;;;13.20;7.13;;;14.00;99.90;;;;;;5050026;28;20224;-91
2021/08/23 04:23:27;;;;;;;9.40;7.03;;;13.90;99.90;;;;;;5049781;28;20243;-91
2021/08/23 04:25:59;;;;;;;11.10;7.23;;;13.90;99.90;;;;;;5049987;28;20236;-91
2021/08/23 04:28:33;;;;;;;12.77;7.43;;;13.90;99.90;;;;;;5047709;28;20205;-90
2021/08/23 04:31:05;;;;;;;12.03;7.30;;;13.90;99.90;;;;;;5026406;28;20327;-91
2021/08/23 04:33:38;;;;;;;11.93;7.40;;;13.80;99.90;;;;;;5038841;28;20201;-92
2021/08/23 04:36:11;;;;;;;11.70;6.70;;;13.70;99.90;;;;;;5049683;28;20212;-91
2021/08/23 04:38:43;;;;;;;11.33;7.70;;;13.80;99.90;;;;;;5054605;28;20221;-92
2021/08/23 04:41:15;;;;;;;12.07;7.57;;;13.70;99.90;;;;;;5074968;28;20196;-92
2021/08/23 04:43:46;;;;;;;9.33;7.50;;;13.70;99.90;;;;;;5077693;28;20232;-92
2021/08/23 04:46:18;;;;;;;10.03;7.67;;;13.70;99.90;;;;;;5076383;28;20215;-91
2021/08/23 04:48:49;;;;;;;12.00;7.77;;;13.60;99.90;;;;;;5076455;28;20200;-92
2021/08/23 05:07:20;;;;;;;11.47;7.70;;;13.60;99.90;;;;;;5058382;28;20281;-91
2021/08/23 05:09:55;;;;;;;13.53;7.87;;;13.70;99.90;;;;;;5071704;28;20291;-90
2021/08/23 05:12:29;;;;;;;11.97;7.40;;;13.70;99.90;;;;;;5064267;28;20260;-90
2021/08/23 05:17:46;;;;;;;13.97;8.00;;;13.80;99.90;;;;;;5069450;28;20574;-90
2021/08/23 05:20:18;;;;;;;12.37;7.93;;;13.90;99.90;;;;;;5076067;28;20192;-94
2021/08/23 05:22:53;;;;;;;11.30;7.93;;;13.90;99.90;;;;;;5077037;28;20211;-91
2021/08/23 05:25:25;;;;;;;10.83;7.63;;;14.00;99.90;;;;;;5077082;28;20224;-91
2021/08/23 05:27:58;;;;;;;10.83;6.97;;;14.10;99.90;;;;;;5074630;28;20187;-90
2021/08/23 05:30:29;;;;;;;10.07;7.53;;;14.10;99.90;;;;;;5071768;28;20635;-90
2021/08/23 05:33:02;;;;;;;11.57;7.53;;;14.20;99.90;;;;;;5075700;28;20215;-91
2021/08/23 05:35:34;;;;;;;10.97;7.77;;;14.20;99.90;;;;;;5066486;28;20204;-90
2021/08/23 05:38:22;;;;;;;11.17;6.90;;;14.20;99.90;;;;;;5070219;28;20204;-90
2021/08/23 05:40:54;;;;;;;10.93;7.33;;;14.20;99.90;;;;;;5065306;28;20238;-91
2021/08/23 05:43:25;;;;;;;11.10;7.00;;;14.20;99.90;;;;;;5063043;28;20235;-91
2021/08/23 05:46:00;;;;;;;11.07;6.87;;;14.20;99.90;;;;;;5062107;28;20266;-92
2021/08/23 05:48:32;;;;;;;8.97;7.30;;;14.20;99.90;;;;;;5074019;28;20192;-90
2021/08/23 05:51:04;;;;;;;11.70;7.60;;;14.20;99.90;;;;;;5069868;28;20184;-91
2021/08/23 05:53:37;;;;;;;10.70;7.10;;;14.10;99.90;;;;;;5064980;28;20215;-92
2021/08/23 05:56:09;;;;;;;12.47;7.00;;;14.10;99.90;;;;;;5046008;28;20204;-91
2021/08/23 05:58:40;;;;;;;11.00;6.97;;;14.00;99.90;;;;;;5070184;28;20215;-91
2021/08/23 06:01:12;;;;;;;12.53;8.27;;;14.00;99.90;;;;;;5040026;28;20676;-91
2021/08/23 06:03:44;;;;;;;9.03;6.57;;;14.00;99.90;;;;;;5059404;28;20204;-91
2021/08/23 06:06:17;;;;;;;11.73;7.80;;;13.90;99.90;;;;;;5059376;28;20238;-91
2021/08/23 06:08:50;;;;;;;11.60;7.57;;;13.80;99.90;;;;;;5064426;28;20207;-91
2021/08/23 06:11:22;;;;;;;10.97;7.60;;;13.80;99.90;;;;;;5073207;28;20215;-91
2021/08/23 06:14:07;;;;;;;11.00;7.13;;;13.70;99.90;;;;;;5073322;28;20231;-91
2021/08/23 06:16:38;;;;;;;10.07;6.80;;;13.60;99.90;;;;;;5065309;28;20200;-90
2021/08/23 06:19:10;;;;;;;12.67;7.40;;;13.60;99.90;;;;;;5072965;28;20204;-91
2021/08/23 06:21:41;;;;;;;9.83;6.73;;;13.50;99.90;;;;;;5066650;28;20567;-89
2021/08/23 06:24:22;;;;;;;13.53;7.10;;;13.50;99.90;;;;;;5073846;28;20236;-91
2021/08/23 06:26:56;;;;;;;9.87;6.63;;;13.40;99.90;;;;;;5076667;28;20208;-91
2021/08/23 06:29:27;;;;;;;12.50;7.03;;;13.30;99.90;;;;;;5067875;28;20203;-90
2021/08/23 06:32:02;;;;;;;11.70;7.07;;;13.30;99.90;;;;;;5073404;28;20201;-91
2021/08/23 06:34:34;;;;;;;11.60;6.83;;;13.30;99.90;;;;;;5067428;28;20210;-90
2021/08/23 06:37:18;;;;;;;11.20;7.20;;;13.30;99.90;;;;;;5074509;28;20204;-90
2021/08/23 06:39:51;;;;;;;9.80;6.70;;;13.30;99.90;;;;;;5072228;28;20219;-90
2021/08/23 06:42:24;;;;;;;12.97;7.10;;;13.30;99.90;;;;;;5051888;28;20204;-90
2021/08/23 06:44:56;;;;;;;10.33;6.73;;;13.30;99.90;;;;;;5068181;28;20305;-90
2021/08/23 06:47:28;;;;;;;11.27;6.87;;;13.30;99.90;;;;;;5024576;28;20237;-90
2021/08/23 06:50:00;;;;;;;10.37;6.70;;;13.40;99.90;;;;;;5042362;28;20205;-90
2021/08/23 06:52:32;;;;;;;12.63;7.03;;;13.30;99.90;;;;;;5042160;28;20201;-90
2021/08/23 06:55:05;;;;;;;11.67;6.80;;;13.30;99.90;;;;;;5041270;28;20221;-89
2021/08/23 06:57:36;;;;;;;12.07;6.70;;;13.30;99.90;;;;;;5040095;28;20240;-90
2021/08/23 07:00:11;;;;;;;12.27;7.00;;;13.20;99.90;;;;;;5041607;28;20209;-90
2021/08/23 07:02:43;;;;;;;10.90;6.93;;;13.20;99.90;;;;;;5023935;28;20232;-90
2021/08/23 07:05:17;;;;;;;11.73;6.53;;;13.10;99.90;;;;;;5041902;28;20233;-90
2021/08/23 07:07:49;;;;;;;12.57;6.87;;;13.00;99.90;;;;;;5042853;28;20237;-91
2021/08/23 07:10:24;;;;;;;11.07;6.20;;;12.90;99.90;;;;;;5042200;28;20519;-91
2021/08/23 07:12:56;;;;;;;9.90;6.57;;;12.80;99.90;;;;;;5044564;28;20236;-90
2021/08/23 07:15:28;;;;;;;15.03;6.73;;;12.80;99.90;;;;;;5047934;28;20208;-90
2021/08/23 07:17:59;;;;;;;12.30;7.10;;;12.80;99.90;;;;;;5062845;28;20204;-90
2021/08/23 07:20:32;;;;;;;13.93;6.50;;;12.70;99.90;;;;;;5044854;28;20212;-90
2021/08/23 07:23:03;;;;;;;12.57;6.87;;;12.70;99.90;;;;;;5061388;28;20208;-89
2021/08/23 07:25:37;;;;;;;15.20;7.00;;;12.70;99.90;;;;;;5062752;28;20596;-90
2021/08/23 07:28:09;;;;;;;8.77;6.17;;;12.60;99.90;;;;;;5048253;28;20211;-90
2021/08/23 07:30:40;;;;;;;11.93;7.07;;;12.50;99.90;;;;;;5049410;28;20270;-89
2021/08/23 07:33:12;;;;;;;10.40;6.57;;;12.50;99.90;;;;;;5079359;28;20211;-88
2021/08/23 07:35:43;;;;;;;14.53;7.47;;;12.40;99.90;;;;;;5079088;28;20192;-89
2021/08/23 07:38:14;;;;;;;11.33;6.90;;;12.40;99.90;;;;;;5078334;28;20239;-89
2021/08/23 07:40:49;;;;;;;13.97;7.03;;;12.40;99.90;;;;;;5055313;28;20199;-89
2021/08/23 07:43:21;;;;;;;11.50;7.00;;;12.40;99.90;;;;;;5132752;23;20224;-90
2021/08/23 07:45:52;;;;;;;13.57;7.57;;;12.30;99.90;;;;;;5075674;28;20228;-89
2021/08/23 07:48:23;;;;;;;15.37;7.30;;;12.30;99.90;;;;;;5064651;28;20216;-89
2021/08/23 07:50:54;;;;;;;12.33;6.90;;;12.30;99.90;;;;;;5059441;28;20240;-89
2021/08/23 07:53:27;;;;;;;10.23;6.70;;;12.20;99.90;;;;;;5058396;28;20277;-89
2021/08/23 07:56:01;;;;;;;13.17;7.40;;;12.20;99.90;;;;;;5057278;28;20287;-88
2021/08/23 07:58:32;;;;;;;11.10;6.90;;;12.20;99.90;;;;;;5059121;28;20255;-89
2021/08/23 08:01:04;;;;;;;15.20;7.10;;;12.20;99.90;;;;;;5039458;28;20262;-89
2021/08/23 08:03:35;;;;;;;10.27;7.07;;;12.20;99.90;;;;;;5040694;28;20217;-89
2021/08/23 08:06:07;;;;;;;10.27;7.53;;;12.20;99.90;;;;;;5040988;28;20275;-89
2021/08/23 08:08:38;;;;;;;9.87;6.33;;;12.20;99.90;;;;;;5046034;28;20208;-88
2021/08/23 08:11:11;;;;;;;12.60;7.37;;;12.30;99.90;;;;;;5049398;28;20568;-88
2021/08/23 08:13:42;;;;;;;11.00;6.60;;;12.30;99.90;;;;;;5057285;28;20212;-90
2021/08/23 08:16:13;;;;;;;13.03;7.20;;;12.30;99.90;;;;;;5052708;28;20216;-90
2021/08/23 08:18:45;;;;;;;11.30;6.97;;;12.40;99.90;;;;;;5062597;28;20244;-90
2021/08/23 08:21:16;;;;;;;10.37;6.37;;;12.40;99.90;;;;;;5057657;28;20208;-90
2021/08/23 08:23:52;;;;;;;10.73;6.47;;;12.60;99.90;;;;;;5057984;28;20555;-90
2021/08/23 08:26:26;;;;;;;11.80;6.30;;;12.70;99.90;;;;;;5057503;28;20287;-88
2021/08/23 08:28:57;;;;;;;10.07;6.50;;;12.70;99.90;;;;;;5057790;28;20471;-90
2021/08/23 08:31:29;;;;;;;11.27;6.37;;;12.70;99.90;;;;;;5056826;28;20219;-90
2021/08/23 08:34:01;;;;;;;8.97;6.20;;;12.80;99.90;;;;;;5057262;28;20232;-90
2021/08/23 08:36:33;;;;;;;11.93;6.90;;;12.90;99.90;;;;;;5055988;28;20236;-90
2021/08/23 08:39:05;;;;;;;9.87;7.20;;;12.90;99.90;;;;;;5060888;28;20635;-90
2021/08/23 08:41:39;;;;;;;12.50;6.23;;;13.00;99.90;;;;;;5056488;28;20689;-90
2021/08/23 08:44:10;;;;;;;13.63;6.80;;;13.00;99.90;;;;;;5057190;28;20211;-90
2021/08/23 08:46:42;;;;;;;10.93;5.90;;;13.10;99.90;;;;;;5040260;28;20232;-90
2021/08/23 08:49:14;;;;;;;14.30;6.30;;;13.20;99.90;;;;;;5057504;28;20683;-90
2021/08/23 08:51:47;;;;;;;10.30;6.00;;;13.20;99.90;;;;;;5056897;28;20212;-89
2021/08/23 08:54:20;;;;;;;13.90;5.53;;;13.30;99.90;;;;;;5057676;28;20212;-90
2021/08/23 08:56:53;;;;;;;12.23;6.13;;;13.30;99.90;;;;;;5057167;28;20200;-90
2021/08/23 08:59:25;;;;;;;11.17;6.13;;;13.30;99.90;;;;;;5064346;28;20204;-91
2021/08/23 09:01:56;;;;;;;11.87;5.57;;;13.30;99.90;;;;;;5055759;28;20204;-91
2021/08/23 09:04:31;;;;;;;10.20;5.63;;;13.30;99.90;;;;;;5056693;28;20204;-92
2021/08/23 09:07:09;;;;;;;11.90;5.67;;;13.30;99.90;;;;;;5057967;28;20345;-91
2021/08/23 09:09:41;;;;;;;11.30;5.93;;;13.30;99.90;;;;;;5056912;28;20212;-91
2021/08/23 09:12:16;;;;;;;14.47;6.10;;;13.30;99.90;;;;;;5039381;28;20215;-92
2021/08/23 09:14:55;;;;;;;12.57;5.60;;;13.40;99.90;;;;;;5056612;28;20219;-91
2021/08/23 09:17:27;;;;;;;9.03;5.73;;;13.40;99.90;;;;;;5039601;28;20216;-91
2021/08/23 09:20:03;;;;;;;12.97;6.73;;;13.40;99.90;;;;;;5037650;28;20220;-91
2021/08/23 09:22:34;;;;;;;11.27;5.97;;;13.40;99.90;;;;;;5035703;28;20717;-91
2021/08/23 09:25:13;;;;;;;12.53;6.27;;;13.40;99.90;;;;;;5036762;28;20213;-91
2021/08/23 09:27:47;;;;;;;11.80;6.13;;;13.40;99.90;;;;;;5038813;28;20236;-89
2021/08/23 09:30:21;;;;;;;12.80;5.93;;;13.50;99.90;;;;;;5036448;28;20226;-89
2021/08/23 09:32:57;;;;;;;11.93;6.03;;;13.40;99.90;;;;;;5037048;28;20240;-89
2021/08/23 09:35:30;;;;;;;13.20;5.90;;;13.40;99.90;;;;;;5037455;28;20213;-89
2021/08/23 09:38:09;;;;;;;10.40;6.27;;;13.40;99.90;;;;;;5052426;28;20201;-89
2021/08/23 09:40:40;;;;;;;13.33;6.63;;;13.40;99.90;;;;;;5036660;28;20276;-89
2021/08/23 09:43:16;;;;;;;13.43;6.00;;;13.40;99.90;;;;;;5038165;28;20213;-90
2021/08/23 09:45:49;;;;;;;11.07;6.00;;;13.40;99.90;;;;;;5036545;28;20323;-90
2021/08/23 09:48:22;;;;;;;13.20;6.47;;;13.40;99.90;;;;;;5036455;28;20403;-90
2021/08/23 09:50:53;;;;;;;12.87;6.10;;;13.30;99.90;;;;;;5037325;28;20205;-91
2021/08/23 09:53:24;;;;;;;13.53;6.87;;;13.30;99.90;;;;;;5044500;28;20322;-91
2021/08/23 09:55:59;;;;;;;11.77;6.10;;;13.30;99.90;;;;;;5039854;28;20681;-90
2021/08/23 09:58:33;;;;;;;11.37;6.30;;;13.30;99.90;;;;;;5056674;28;20184;-89
2021/08/23 10:01:04;;;;;;;12.77;5.73;;;13.30;99.90;;;;;;5041922;28;20243;-90
2021/08/23 10:03:37;;;;;;;13.57;6.27;;;13.30;99.90;;;;;;5039390;28;20662;-90
2021/08/23 10:06:17;;;;;;;18.90;7.30;;;13.20;99.90;;;;;;5051430;28;20315;-90
2021/08/23 10:08:50;;;;;;;11.77;5.70;;;13.20;99.90;;;;;;5039711;28;20212;-90
2021/08/23 10:11:22;;;;;;;16.40;7.03;;;13.20;99.90;;;;;;5056661;28;20216;-90
2021/08/23 10:13:55;;;;;;;13.30;6.33;;;13.30;99.90;;;;;;5050914;28;20661;-88
2021/08/23 10:16:27;;;;;;;14.93;6.37;;;13.20;99.90;;;;;;5038882;28;20622;-89
2021/08/23 10:18:59;;;;;;;14.33;7.20;;;13.20;99.90;;;;;;5021404;28;20769;-90
2021/08/23 10:21:32;;;;;;;15.17;6.47;;;13.10;99.90;;;;;;5037356;28;20235;-89
2021/08/23 10:24:06;;;;;;;16.97;6.63;;;13.10;99.90;;;;;;5038081;28;20606;-90
2021/08/23 10:26:42;;;;;;;16.77;6.90;;;13.10;99.90;;;;;;5036621;28;20235;-89
2021/08/23 10:29:38;;;;;;;14.67;7.20;;;13.10;99.90;;;;;;5043518;28;20276;-90
2021/08/23 10:32:10;;;;;;;14.27;6.40;;;13.00;99.90;;;;;;5044831;28;20259;-90
2021/08/23 10:34:41;;;;;;;14.30;7.10;;;13.00;99.90;;;;;;5038876;28;20236;-89
2021/08/23 10:37:21;;;;;;;15.70;7.80;;;13.00;99.90;;;;;;5038557;28;20251;-89
2021/08/23 10:40:02;;;;;;;17.77;7.97;;;13.00;99.90;;;;;;5042926;28;20231;-89
2021/08/23 10:42:46;;;;;;;16.33;7.83;;;12.90;99.90;;;;;;5050771;28;20197;-90
2021/08/23 10:45:21;;;;;;;15.57;7.37;;;12.90;99.90;;;;;;5048087;28;20242;-88
2021/08/23 10:47:52;;;;;;;13.20;8.17;;;12.90;99.90;;;;;;5058691;28;20268;-89
2021/08/23 10:50:26;;;;;;;12.10;7.20;;;12.80;99.90;;;;;;5057292;28;20208;-90
2021/08/23 10:52:57;;;;;;;13.00;7.57;;;12.80;99.90;;;;;;5055155;28;20236;-90
2021/08/23 10:55:37;;;;;;;15.53;7.93;;;12.80;99.90;;;;;;5057059;28;20250;-89
2021/08/23 10:58:09;;;;;;;16.83;7.23;;;12.80;99.90;;;;;;5057014;28;20196;-90
2021/08/23 11:00:45;;;;;;;13.63;7.57;;;12.80;99.90;;;;;;5042286;28;20618;-90
2021/08/23 11:03:17;;;;;;;13.63;7.47;;;12.80;99.90;;;;;;5059897;28;20580;-90
2021/08/23 11:05:51;;;;;;;14.37;7.13;;;12.80;99.90;;;;;;5060322;28;20231;-90
2021/08/23 11:08:26;;;;;;;12.60;7.00;;;12.70;99.90;;;;;;5069966;28;20236;-89
2021/08/23 11:11:12;;;;;;;11.87;6.83;;;12.70;99.90;;;;;;5070147;28;20239;-90
2021/08/23 11:13:44;;;;;;;13.17;7.00;;;12.70;99.90;;;;;;5065481;28;20215;-90
2021/08/23 11:16:19;;;;;;;12.90;7.17;;;12.70;99.90;;;;;;5050452;28;20266;-90
2021/08/23 11:18:50;;;;;;;14.40;6.70;;;12.70;99.90;;;;;;5040617;28;20212;-90
2021/08/23 11:21:27;;;;;;;15.83;7.40;;;12.70;99.90;;;;;;5040162;28;20236;-89
2021/08/23 11:24:08;;;;;;;12.07;6.77;;;12.80;99.90;;;;;;5039224;28;20695;-90
2021/08/23 11:26:39;;;;;;;12.93;6.70;;;12.80;99.90;;;;;;5039818;28;20235;-90
2021/08/23 11:29:11;;;;;;;14.53;7.00;;;12.80;99.90;;;;;;5039918;28;20251;-90
2021/08/23 11:31:55;;;;;;;13.60;6.50;;;12.80;99.90;;;;;;5038203;28;20541;-90
2021/08/23 11:34:28;;;;;;;14.00;7.03;;;12.80;99.90;;;;;;5039495;28;20274;-89
2021/08/23 11:37:03;;;;;;;11.53;6.30;;;12.80;99.90;;;;;;5039240;28;20751;-90
2021/08/23 11:39:36;;;;;;;16.30;6.77;;;12.70;99.90;;;;;;5039457;28;20649;-90
2021/08/23 11:42:09;;;;;;;12.47;6.77;;;12.70;99.90;;;;;;5020640;28;20289;-90
2021/08/23 11:44:41;;;;;;;12.80;6.83;;;12.60;99.90;;;;;;5021339;28;20225;-89
2021/08/23 11:47:14;;;;;;;14.97;8.33;;;12.50;99.90;;;;;;5058527;28;20240;-90
2021/08/23 11:49:46;;;;;;;10.03;6.40;;;12.40;99.90;;;;;;5058464;28;20216;-90
2021/08/23 11:52:19;;;;;;;11.67;6.87;;;12.40;99.90;;;;;;5058021;28;20208;-90
2021/08/23 11:54:52;;;;;;;14.60;7.20;;;12.30;99.90;;;;;;5059407;28;20234;-90
2021/08/23 11:57:24;;;;;;;16.13;7.30;;;12.30;99.90;;;;;;5058791;28;20231;-90
2021/08/23 12:00:00;;;;;;;13.47;7.50;;;12.30;99.90;;;;;;5058913;28;20266;-90
2021/08/23 12:02:36;;;;;;;13.87;7.27;;;12.30;99.90;;;;;;5040358;28;20207;-90
2021/08/23 12:05:15;;;;;;;16.37;8.53;;;12.20;99.90;;;;;;5058791;28;20287;-90
2021/08/23 12:07:48;;;;;;;17.43;7.50;;;12.20;99.90;;;;;;5041751;28;20228;-90
2021/08/23 12:10:30;;;;;;;12.90;6.90;;;12.20;99.90;;;;;;5074951;22;20260;-93
2021/08/23 12:13:12;;;;;;;14.37;8.07;;;12.20;99.90;;;;;;5041593;28;20213;-90
2021/08/23 12:15:55;;;;;;;14.27;7.60;;;12.30;99.90;;;;;;5047932;28;20238;-90
2021/08/23 12:18:36;;;;;;;16.20;7.67;;;12.20;99.90;;;;;;5040185;28;20209;-90
2021/08/23 12:21:11;;;;;;;13.27;7.27;;;12.20;99.90;;;;;;5037819;28;20218;-90
2021/08/23 12:23:54;;;;;;;17.40;7.50;;;12.30;99.90;;;;;;5038036;28;20205;-90
2021/08/23 12:26:35;;;;;;;17.80;7.43;;;12.30;99.90;;;;;;5039941;28;20276;-90
2021/08/23 12:29:07;;;;;;;13.27;6.93;;;12.30;99.90;;;;;;5176261;23;20294;-89
2021/08/23 12:31:41;;;;;;;16.00;7.80;;;12.30;99.90;;;;;;5058058;28;20212;-89
2021/08/23 12:34:19;;;;;;;15.07;7.60;;;12.40;99.90;;;;;;5060325;28;20637;-90
2021/08/23 12:36:51;;;;;;;14.57;7.10;;;12.40;99.90;;;;;;5058270;28;20211;-89
2021/08/23 12:39:22;;;;;;;17.07;7.50;;;12.40;99.90;;;;;;5059118;28;20223;-89
2021/08/23 12:41:55;;;;;;;15.27;6.97;;;12.40;99.90;;;;;;5058902;28;20207;-90
2021/08/23 12:44:27;;;;;;;12.63;7.23;;;12.40;99.90;;;;;;5061147;28;20211;-89
2021/08/23 12:52:17;;;;;;;12.20;7.10;;;12.30;99.90;;;;;;5055531;22;20286;-90
2021/08/23 12:54:49;;;;;;;14.17;6.57;;;12.20;99.90;;;;;;5030665;28;20259;-91
2021/08/23 12:57:24;;;;;;;12.40;5.97;;;12.30;99.90;;;;;;5021351;28;20221;-91
2021/08/23 12:59:55;;;;;;;12.37;6.03;;;12.30;99.90;;;;;;5023146;28;20673;-91
2021/08/23 13:02:26;;;;;;;11.43;5.83;;;12.30;99.90;;;;;;5051022;28;20211;-91
2021/08/23 13:04:57;;;;;;;11.63;5.57;;;12.30;99.90;;;;;;5056921;28;20188;-92
2021/08/23 13:07:30;;;;;;;12.97;6.00;;;12.20;99.90;;;;;;5056751;28;20225;-91
2021/08/23 13:10:01;;;;;;;11.87;6.47;;;12.10;99.90;;;;;;5052343;28;20215;-91
2021/08/23 13:12:32;;;;;;;12.70;6.00;;;12.10;99.90;;;;;;5050163;28;20217;-91
2021/08/23 13:15:04;;;;;;;10.83;6.33;;;12.00;99.90;;;;;;5049026;28;20259;-91
2021/08/23 13:17:37;;;;;;;12.53;6.10;;;12.00;99.90;;;;;;5038892;28;20217;-91
2021/08/23 13:20:10;;;;;;;13.07;5.70;;;12.00;99.90;;;;;;5037081;28;20260;-91
2021/08/23 13:22:43;;;;;;;13.40;7.07;;;12.00;99.90;;;;;;5035603;28;20197;-91
2021/08/23 13:25:14;;;;;;;8.53;5.77;;;11.90;99.90;;;;;;5036967;28;20209;-91
2021/08/23 13:27:45;;;;;;;15.03;6.17;;;12.00;99.90;;;;;;5036802;28;20263;-91
2021/08/23 13:30:18;;;;;;;9.60;6.00;;;12.00;99.90;;;;;;5019734;28;20205;-92
2021/08/23 13:32:49;;;;;;;11.13;5.90;;;11.90;99.90;;;;;;5036889;28;20212;-88
2021/08/23 13:35:21;;;;;;;12.20;6.10;;;11.80;99.90;;;;;;5036618;28;20212;-90
2021/08/23 13:37:54;;;;;;;12.07;5.70;;;11.80;99.90;;;;;;5036083;28;20209;-91
2021/08/23 13:40:25;;;;;;;13.03;6.00;;;11.90;99.90;;;;;;5035163;28;20630;-90
2021/08/23 13:42:56;;;;;;;11.47;6.20;;;11.90;99.90;;;;;;5036449;28;20598;-90
2021/08/23 13:45:27;;;;;;;9.33;5.80;;;12.00;99.90;;;;;;5036148;28;20278;-89
2021/08/23 13:47:58;;;;;;;12.17;5.97;;;12.00;99.90;;;;;;5036279;28;20241;-90
2021/08/23 13:50:30;;;;;;;12.30;6.67;;;12.00;99.90;;;;;;5034862;28;20249;-91
2021/08/23 13:53:06;;;;;;;12.63;5.87;;;12.20;99.90;;;;;;5019534;28;20205;-91
2021/08/23 13:55:39;;;;;;;11.47;6.30;;;12.20;99.90;;;;;;5038252;28;20245;-91
2021/08/23 13:58:11;;;;;;;12.20;6.47;;;12.20;99.90;;;;;;5032873;28;20205;-90